sensor_id;sensor_type;location;lat;lon;timestamp;P1;durP1;ratioP1;P2;durP2;ratioP2
1410;SDS011;700;51.906;8.404;2023-01-10T00:03:58;3.00;;;1.83;;
1410;SDS011;700;51.906;8.404;2023-01-10T00:08:58;6.30;;;2.50;;
1410;SDS011;700;51.906;8.404;2023-01-10T00:14:01;4.63;;;2.33;;
1410;SDS011;700;51.906;8.404;2023-01-10T00:19:02;7.27;;;3.70;;
1410;SDS011;700;51.906;8.404;2023-01-10T00:24:03;4.63;;;3.00;;
1410;SDS011;700;51.906;8.404;2023-01-10T00:29:16;9.53;;;3.77;;
1410;SDS011;700;51.906;8.404;2023-01-10T00:34:23;7.60;;;3.63;;
1410;SDS011;700;51.906;8.404;2023-01-10T00:39:24;5.17;;;3.00;;
1410;SDS011;700;51.906;8.404;2023-01-10T00:44:26;5.43;;;3.80;;
1410;SDS011;700;51.906;8.404;2023-01-10T00:49:27;7.97;;;4.90;;
1410;SDS011;700;51.906;8.404;2023-01-10T00:54:27;12.03;;;5.17;;
1410;SDS011;700;51.906;8.404;2023-01-10T00:59:28;7.40;;;5.30;;
1410;SDS011;700;51.906;8.404;2023-01-10T01:04:33;12.60;;;5.53;;
1410;SDS011;700;51.906;8.404;2023-01-10T01:09:36;6.17;;;4.80;;
1410;SDS011;700;51.906;8.404;2023-01-10T01:14:57;9.70;;;6.67;;
1410;SDS011;700;51.906;8.404;2023-01-10T01:20:02;11.63;;;6.60;;
1410;SDS011;700;51.906;8.404;2023-01-10T01:25:03;8.00;;;6.43;;
1410;SDS011;700;51.906;8.404;2023-01-10T01:30:07;12.93;;;7.70;;
1410;SDS011;700;51.906;8.404;2023-01-10T01:35:09;14.87;;;8.03;;
1410;SDS011;700;51.906;8.404;2023-01-10T01:40:16;13.03;;;8.10;;
1410;SDS011;700;51.906;8.404;2023-01-10T01:50:31;17.40;;;8.80;;
1410;SDS011;700;51.906;8.404;2023-01-10T01:55:39;13.67;;;8.47;;
1410;SDS011;700;51.906;8.404;2023-01-10T02:00:42;16.37;;;8.20;;
1410;SDS011;700;51.906;8.404;2023-01-10T02:05:46;19.07;;;8.77;;
1410;SDS011;700;51.906;8.404;2023-01-10T02:15:52;19.07;;;6.87;;
1410;SDS011;700;51.906;8.404;2023-01-10T02:37:12;14.43;;;5.90;;
1410;SDS011;700;51.906;8.404;2023-01-10T02:42:26;11.90;;;6.10;;
1410;SDS011;700;51.906;8.404;2023-01-10T02:47:39;10.20;;;5.37;;
1410;SDS011;700;51.906;8.404;2023-01-10T02:52:40;9.20;;;4.77;;
1410;SDS011;700;51.906;8.404;2023-01-10T03:13:50;11.73;;;4.80;;
1410;SDS011;700;51.906;8.404;2023-01-10T03:18:56;10.60;;;5.40;;
1410;SDS011;700;51.906;8.404;2023-01-10T03:24:00;17.27;;;5.20;;
1410;SDS011;700;51.906;8.404;2023-01-10T03:29:07;15.67;;;5.53;;
1410;SDS011;700;51.906;8.404;2023-01-10T03:34:10;12.33;;;6.20;;
1410;SDS011;700;51.906;8.404;2023-01-10T03:39:17;13.90;;;6.30;;
1410;SDS011;700;51.906;8.404;2023-01-10T03:49:53;12.73;;;6.40;;
1410;SDS011;700;51.906;8.404;2023-01-10T03:54:58;12.77;;;6.47;;
1410;SDS011;700;51.906;8.404;2023-01-10T03:59:59;17.73;;;7.17;;
1410;SDS011;700;51.906;8.404;2023-01-10T04:05:02;14.17;;;7.07;;
1410;SDS011;700;51.906;8.404;2023-01-10T04:10:04;12.70;;;7.00;;
1410;SDS011;700;51.906;8.404;2023-01-10T04:15:06;12.07;;;7.27;;
1410;SDS011;700;51.906;8.404;2023-01-10T04:20:07;12.00;;;7.63;;
1410;SDS011;700;51.906;8.404;2023-01-10T04:25:11;12.27;;;7.87;;
1410;SDS011;700;51.906;8.404;2023-01-10T04:30:12;13.67;;;7.67;;
1410;SDS011;700;51.906;8.404;2023-01-10T04:35:13;16.00;;;6.80;;
1410;SDS011;700;51.906;8.404;2023-01-10T04:40:13;10.43;;;6.87;;
1410;SDS011;700;51.906;8.404;2023-01-10T04:45:18;14.17;;;7.27;;
1410;SDS011;700;51.906;8.404;2023-01-10T04:50:21;15.00;;;6.30;;
1410;SDS011;700;51.906;8.404;2023-01-10T04:55:26;18.53;;;6.67;;
1410;SDS011;700;51.906;8.404;2023-01-10T05:00:27;11.60;;;5.87;;
1410;SDS011;700;51.906;8.404;2023-01-10T05:05:27;13.63;;;6.43;;
1410;SDS011;700;51.906;8.404;2023-01-10T05:10:28;14.00;;;6.60;;
1410;SDS011;700;51.906;8.404;2023-01-10T05:15:29;11.43;;;6.13;;
1410;SDS011;700;51.906;8.404;2023-01-10T05:20:32;17.33;;;6.20;;
1410;SDS011;700;51.906;8.404;2023-01-10T05:25:33;14.40;;;5.53;;
1410;SDS011;700;51.906;8.404;2023-01-10T05:30:35;9.37;;;5.23;;
1410;SDS011;700;51.906;8.404;2023-01-10T05:35:39;13.30;;;6.47;;
1410;SDS011;700;51.906;8.404;2023-01-10T05:40:42;15.43;;;5.90;;
1410;SDS011;700;51.906;8.404;2023-01-10T05:45:42;13.97;;;6.00;;
1410;SDS011;700;51.906;8.404;2023-01-10T05:50:43;17.30;;;6.57;;
1410;SDS011;700;51.906;8.404;2023-01-10T05:55:56;11.00;;;6.20;;
1410;SDS011;700;51.906;8.404;2023-01-10T06:01:01;11.33;;;7.27;;
1410;SDS011;700;51.906;8.404;2023-01-10T06:06:01;14.20;;;6.37;;
1410;SDS011;700;51.906;8.404;2023-01-10T06:11:03;14.97;;;7.40;;
1410;SDS011;700;51.906;8.404;2023-01-10T06:16:04;13.97;;;7.60;;
1410;SDS011;700;51.906;8.404;2023-01-10T06:21:05;17.53;;;7.50;;
1410;SDS011;700;51.906;8.404;2023-01-10T06:26:08;14.80;;;7.03;;
1410;SDS011;700;51.906;8.404;2023-01-10T06:31:09;15.10;;;8.67;;
1410;SDS011;700;51.906;8.404;2023-01-10T06:36:16;16.87;;;7.23;;
1410;SDS011;700;51.906;8.404;2023-01-10T06:41:21;15.97;;;8.10;;
1410;SDS011;700;51.906;8.404;2023-01-10T06:46:22;20.40;;;10.70;;
1410;SDS011;700;51.906;8.404;2023-01-10T06:51:22;14.33;;;8.20;;
1410;SDS011;700;51.906;8.404;2023-01-10T06:56:26;19.10;;;9.63;;
1410;SDS011;700;51.906;8.404;2023-01-10T07:01:29;13.67;;;7.47;;
1410;SDS011;700;51.906;8.404;2023-01-10T07:06:29;15.17;;;8.60;;
1410;SDS011;700;51.906;8.404;2023-01-10T07:11:36;19.37;;;8.87;;
1410;SDS011;700;51.906;8.404;2023-01-10T07:16:36;16.00;;;7.30;;
1410;SDS011;700;51.906;8.404;2023-01-10T07:21:37;17.73;;;8.43;;
1410;SDS011;700;51.906;8.404;2023-01-10T07:26:40;23.53;;;9.20;;
1410;SDS011;700;51.906;8.404;2023-01-10T07:31:43;21.47;;;8.53;;
1410;SDS011;700;51.906;8.404;2023-01-10T07:36:46;19.20;;;8.27;;
1410;SDS011;700;51.906;8.404;2023-01-10T07:41:49;14.43;;;7.90;;
1410;SDS011;700;51.906;8.404;2023-01-10T07:46:51;16.10;;;8.57;;
1410;SDS011;700;51.906;8.404;2023-01-10T07:51:52;15.27;;;7.20;;
1410;SDS011;700;51.906;8.404;2023-01-10T07:56:52;14.00;;;7.00;;
1410;SDS011;700;51.906;8.404;2023-01-10T08:01:56;18.03;;;7.47;;
1410;SDS011;700;51.906;8.404;2023-01-10T08:06:58;20.90;;;7.10;;
1410;SDS011;700;51.906;8.404;2023-01-10T08:11:59;18.10;;;8.20;;
1410;SDS011;700;51.906;8.404;2023-01-10T08:17:00;18.47;;;7.70;;
1410;SDS011;700;51.906;8.404;2023-01-10T08:22:00;17.80;;;6.90;;
1410;SDS011;700;51.906;8.404;2023-01-10T08:27:02;13.73;;;7.20;;
1410;SDS011;700;51.906;8.404;2023-01-10T08:32:03;16.53;;;7.70;;
1410;SDS011;700;51.906;8.404;2023-01-10T08:37:04;16.57;;;6.30;;
1410;SDS011;700;51.906;8.404;2023-01-10T08:42:07;18.77;;;6.33;;
1410;SDS011;700;51.906;8.404;2023-01-10T08:47:07;18.23;;;6.20;;
1410;SDS011;700;51.906;8.404;2023-01-10T08:52:10;19.23;;;6.57;;
1410;SDS011;700;51.906;8.404;2023-01-10T08:57:13;14.07;;;5.77;;
1410;SDS011;700;51.906;8.404;2023-01-10T09:02:14;16.00;;;7.00;;
1410;SDS011;700;51.906;8.404;2023-01-10T09:07:14;20.70;;;7.90;;
1410;SDS011;700;51.906;8.404;2023-01-10T09:12:15;19.67;;;7.47;;
1410;SDS011;700;51.906;8.404;2023-01-10T09:17:34;23.60;;;6.80;;
1410;SDS011;700;51.906;8.404;2023-01-10T09:22:36;17.17;;;7.47;;
1410;SDS011;700;51.906;8.404;2023-01-10T09:27:37;13.30;;;6.93;;
1410;SDS011;700;51.906;8.404;2023-01-10T09:32:40;19.07;;;7.27;;
1410;SDS011;700;51.906;8.404;2023-01-10T09:37:43;16.83;;;8.70;;
1410;SDS011;700;51.906;8.404;2023-01-10T09:43:27;23.97;;;7.27;;
1410;SDS011;700;51.906;8.404;2023-01-10T09:48:23;21.20;;;8.03;;
1410;SDS011;700;51.906;8.404;2023-01-10T09:53:26;18.13;;;8.50;;
1410;SDS011;700;51.906;8.404;2023-01-10T09:58:30;23.77;;;10.20;;
1410;SDS011;700;51.906;8.404;2023-01-10T10:03:53;18.13;;;8.83;;
1410;SDS011;700;51.906;8.404;2023-01-10T10:09:11;17.80;;;7.87;;
1410;SDS011;700;51.906;8.404;2023-01-10T10:14:17;16.93;;;8.10;;
1410;SDS011;700;51.906;8.404;2023-01-10T10:35:54;14.60;;;7.20;;
1410;SDS011;700;51.906;8.404;2023-01-10T10:40:59;17.70;;;7.93;;
1410;SDS011;700;51.906;8.404;2023-01-10T10:46:01;12.57;;;6.87;;
1410;SDS011;700;51.906;8.404;2023-01-10T10:51:22;22.83;;;8.20;;
1410;SDS011;700;51.906;8.404;2023-01-10T10:56:25;20.07;;;7.17;;
1410;SDS011;700;51.906;8.404;2023-01-10T11:01:29;21.33;;;8.53;;
1410;SDS011;700;51.906;8.404;2023-01-10T11:06:30;21.50;;;7.93;;
1410;SDS011;700;51.906;8.404;2023-01-10T11:11:36;22.20;;;8.40;;
1410;SDS011;700;51.906;8.404;2023-01-10T11:16:44;18.80;;;7.20;;
1410;SDS011;700;51.906;8.404;2023-01-10T11:26:58;24.30;;;7.20;;
1410;SDS011;700;51.906;8.404;2023-01-10T11:32:07;21.57;;;7.40;;
1410;SDS011;700;51.906;8.404;2023-01-10T11:42:30;16.70;;;7.00;;
1410;SDS011;700;51.906;8.404;2023-01-10T11:47:32;18.97;;;6.70;;
1410;SDS011;700;51.906;8.404;2023-01-10T11:52:35;18.90;;;6.50;;
1410;SDS011;700;51.906;8.404;2023-01-10T11:57:44;16.60;;;6.47;;
1410;SDS011;700;51.906;8.404;2023-01-10T12:02:45;14.77;;;6.90;;
1410;SDS011;700;51.906;8.404;2023-01-10T12:07:55;16.07;;;6.23;;
1410;SDS011;700;51.906;8.404;2023-01-10T12:13:14;19.37;;;6.30;;
1410;SDS011;700;51.906;8.404;2023-01-10T12:18:15;17.00;;;6.60;;
1410;SDS011;700;51.906;8.404;2023-01-10T12:23:21;28.37;;;7.43;;
1410;SDS011;700;51.906;8.404;2023-01-10T12:28:25;24.40;;;6.33;;
1410;SDS011;700;51.906;8.404;2023-01-10T12:33:35;21.93;;;5.13;;
1410;SDS011;700;51.906;8.404;2023-01-10T12:44:15;17.50;;;6.07;;
1410;SDS011;700;51.906;8.404;2023-01-10T12:55:03;20.60;;;6.20;;
1410;SDS011;700;51.906;8.404;2023-01-10T13:00:06;14.60;;;5.57;;
1410;SDS011;700;51.906;8.404;2023-01-10T13:05:20;17.33;;;4.70;;
1410;SDS011;700;51.906;8.404;2023-01-10T13:10:25;15.03;;;4.67;;
1410;SDS011;700;51.906;8.404;2023-01-10T13:15:31;13.93;;;4.27;;
1410;SDS011;700;51.906;8.404;2023-01-10T13:20:38;13.20;;;5.00;;
1410;SDS011;700;51.906;8.404;2023-01-10T13:25:51;19.17;;;5.30;;
1410;SDS011;700;51.906;8.404;2023-01-10T13:30:56;15.30;;;4.73;;
1410;SDS011;700;51.906;8.404;2023-01-10T13:36:11;20.43;;;4.30;;
1410;SDS011;700;51.906;8.404;2023-01-10T13:41:18;10.73;;;4.13;;
1410;SDS011;700;51.906;8.404;2023-01-10T13:46:38;12.20;;;4.20;;
1410;SDS011;700;51.906;8.404;2023-01-10T13:52:18;16.63;;;4.50;;
1410;SDS011;700;51.906;8.404;2023-01-10T14:02:49;16.40;;;3.83;;
1410;SDS011;700;51.906;8.404;2023-01-10T14:07:51;8.83;;;4.47;;
1410;SDS011;700;51.906;8.404;2023-01-10T14:13:12;15.17;;;4.70;;
1410;SDS011;700;51.906;8.404;2023-01-10T14:18:20;19.77;;;4.70;;
1410;SDS011;700;51.906;8.404;2023-01-10T14:28:48;14.27;;;3.57;;
1410;SDS011;700;51.906;8.404;2023-01-10T14:33:50;15.20;;;3.40;;
1410;SDS011;700;51.906;8.404;2023-01-10T14:38:58;22.23;;;3.63;;
1410;SDS011;700;51.906;8.404;2023-01-10T14:44:07;19.83;;;4.00;;
1410;SDS011;700;51.906;8.404;2023-01-10T14:49:23;15.93;;;3.77;;
1410;SDS011;700;51.906;8.404;2023-01-10T15:00:00;13.73;;;3.70;;
1410;SDS011;700;51.906;8.404;2023-01-10T15:05:07;10.17;;;4.50;;
1410;SDS011;700;51.906;8.404;2023-01-10T15:15:33;11.90;;;3.17;;
1410;SDS011;700;51.906;8.404;2023-01-10T15:20:36;8.67;;;3.03;;
1410;SDS011;700;51.906;8.404;2023-01-10T15:25:41;8.93;;;3.23;;
1410;SDS011;700;51.906;8.404;2023-01-10T15:30:43;12.27;;;2.70;;
1410;SDS011;700;51.906;8.404;2023-01-10T15:35:46;10.93;;;3.10;;
1410;SDS011;700;51.906;8.404;2023-01-10T15:40:57;12.70;;;3.67;;
1410;SDS011;700;51.906;8.404;2023-01-10T15:46:05;13.40;;;3.03;;
1410;SDS011;700;51.906;8.404;2023-01-10T15:51:26;10.43;;;3.37;;
1410;SDS011;700;51.906;8.404;2023-01-10T15:56:37;11.27;;;3.70;;
1410;SDS011;700;51.906;8.404;2023-01-10T16:01:42;17.60;;;2.90;;
1410;SDS011;700;51.906;8.404;2023-01-10T16:07:03;9.77;;;3.40;;
1410;SDS011;700;51.906;8.404;2023-01-10T16:12:24;14.23;;;3.30;;
1410;SDS011;700;51.906;8.404;2023-01-10T16:17:50;15.97;;;3.53;;
1410;SDS011;700;51.906;8.404;2023-01-10T16:22:51;14.63;;;3.57;;
1410;SDS011;700;51.906;8.404;2023-01-10T16:27:53;12.10;;;3.47;;
1410;SDS011;700;51.906;8.404;2023-01-10T16:32:55;14.87;;;3.10;;
1410;SDS011;700;51.906;8.404;2023-01-10T16:37:57;10.50;;;2.43;;
1410;SDS011;700;51.906;8.404;2023-01-10T16:43:02;12.70;;;3.20;;
1410;SDS011;700;51.906;8.404;2023-01-10T16:48:20;7.23;;;2.57;;
1410;SDS011;700;51.906;8.404;2023-01-10T16:53:25;10.07;;;3.37;;
1410;SDS011;700;51.906;8.404;2023-01-10T16:58:28;13.73;;;3.20;;
1410;SDS011;700;51.906;8.404;2023-01-10T17:03:28;21.03;;;4.37;;
1410;SDS011;700;51.906;8.404;2023-01-10T17:08:38;7.17;;;2.70;;
1410;SDS011;700;51.906;8.404;2023-01-10T17:13:39;7.43;;;2.50;;
1410;SDS011;700;51.906;8.404;2023-01-10T17:18:42;10.03;;;3.10;;
1410;SDS011;700;51.906;8.404;2023-01-10T17:23:45;13.67;;;3.37;;
1410;SDS011;700;51.906;8.404;2023-01-10T17:28:48;11.27;;;3.50;;
1410;SDS011;700;51.906;8.404;2023-01-10T17:33:52;11.77;;;3.50;;
1410;SDS011;700;51.906;8.404;2023-01-10T17:38:55;15.03;;;3.47;;
1410;SDS011;700;51.906;8.404;2023-01-10T17:43:56;12.40;;;2.77;;
1410;SDS011;700;51.906;8.404;2023-01-10T17:48:56;11.43;;;3.47;;
1410;SDS011;700;51.906;8.404;2023-01-10T17:53:57;11.60;;;3.00;;
1410;SDS011;700;51.906;8.404;2023-01-10T17:59:01;8.70;;;2.50;;
1410;SDS011;700;51.906;8.404;2023-01-10T18:04:04;12.67;;;3.37;;
1410;SDS011;700;51.906;8.404;2023-01-10T18:09:05;14.90;;;3.17;;
1410;SDS011;700;51.906;8.404;2023-01-10T18:14:08;13.27;;;2.97;;
1410;SDS011;700;51.906;8.404;2023-01-10T18:19:27;9.13;;;2.57;;
1410;SDS011;700;51.906;8.404;2023-01-10T18:24:31;9.83;;;2.63;;
1410;SDS011;700;51.906;8.404;2023-01-10T18:29:34;10.40;;;3.17;;
1410;SDS011;700;51.906;8.404;2023-01-10T18:34:34;13.93;;;3.50;;
1410;SDS011;700;51.906;8.404;2023-01-10T18:39:37;10.80;;;3.07;;
1410;SDS011;700;51.906;8.404;2023-01-10T18:44:38;10.10;;;3.40;;
1410;SDS011;700;51.906;8.404;2023-01-10T18:49:40;13.93;;;2.80;;
1410;SDS011;700;51.906;8.404;2023-01-10T18:54:40;11.40;;;3.03;;
1410;SDS011;700;51.906;8.404;2023-01-10T18:59:41;8.87;;;2.80;;
1410;SDS011;700;51.906;8.404;2023-01-10T19:04:42;11.33;;;2.53;;
1410;SDS011;700;51.906;8.404;2023-01-10T19:09:42;11.60;;;3.20;;
1410;SDS011;700;51.906;8.404;2023-01-10T19:14:43;11.80;;;2.90;;
1410;SDS011;700;51.906;8.404;2023-01-10T19:19:44;12.40;;;3.03;;
1410;SDS011;700;51.906;8.404;2023-01-10T19:24:44;13.83;;;3.77;;
1410;SDS011;700;51.906;8.404;2023-01-10T19:29:48;8.83;;;3.03;;
1410;SDS011;700;51.906;8.404;2023-01-10T19:34:48;10.70;;;3.03;;
1410;SDS011;700;51.906;8.404;2023-01-10T19:39:49;11.50;;;3.70;;
1410;SDS011;700;51.906;8.404;2023-01-10T19:44:52;14.57;;;3.50;;
1410;SDS011;700;51.906;8.404;2023-01-10T19:49:55;14.63;;;3.73;;
1410;SDS011;700;51.906;8.404;2023-01-10T19:54:56;11.50;;;3.40;;
1410;SDS011;700;51.906;8.404;2023-01-10T19:59:56;9.23;;;2.93;;
1410;SDS011;700;51.906;8.404;2023-01-10T20:04:59;7.30;;;3.07;;
1410;SDS011;700;51.906;8.404;2023-01-10T20:10:01;9.40;;;3.10;;
1410;SDS011;700;51.906;8.404;2023-01-10T20:15:05;8.93;;;2.40;;
1410;SDS011;700;51.906;8.404;2023-01-10T20:20:06;9.00;;;4.10;;
1410;SDS011;700;51.906;8.404;2023-01-10T20:25:07;10.73;;;2.90;;
1410;SDS011;700;51.906;8.404;2023-01-10T20:30:13;6.63;;;2.43;;
1410;SDS011;700;51.906;8.404;2023-01-10T20:35:13;7.67;;;3.30;;
1410;SDS011;700;51.906;8.404;2023-01-10T20:40:14;5.80;;;2.47;;
1410;SDS011;700;51.906;8.404;2023-01-10T20:45:18;4.83;;;1.80;;
1410;SDS011;700;51.906;8.404;2023-01-10T20:50:18;1.97;;;1.40;;
1410;SDS011;700;51.906;8.404;2023-01-10T20:55:22;3.50;;;1.77;;
1410;SDS011;700;51.906;8.404;2023-01-10T21:00:22;4.50;;;1.93;;
1410;SDS011;700;51.906;8.404;2023-01-10T21:05:23;4.27;;;1.93;;
1410;SDS011;700;51.906;8.404;2023-01-10T21:10:26;2.70;;;1.37;;
1410;SDS011;700;51.906;8.404;2023-01-10T21:15:27;1.77;;;1.13;;
1410;SDS011;700;51.906;8.404;2023-01-10T21:20:27;4.97;;;1.70;;
1410;SDS011;700;51.906;8.404;2023-01-10T21:25:29;1.80;;;0.90;;
1410;SDS011;700;51.906;8.404;2023-01-10T21:30:30;1.37;;;1.00;;
1410;SDS011;700;51.906;8.404;2023-01-10T21:35:31;1.87;;;1.00;;
1410;SDS011;700;51.906;8.404;2023-01-10T21:40:32;2.87;;;1.07;;
1410;SDS011;700;51.906;8.404;2023-01-10T21:45:34;2.33;;;1.03;;
1410;SDS011;700;51.906;8.404;2023-01-10T21:50:37;1.20;;;0.93;;
1410;SDS011;700;51.906;8.404;2023-01-10T21:55:38;2.23;;;1.07;;
1410;SDS011;700;51.906;8.404;2023-01-10T22:00:42;1.63;;;1.10;;
1410;SDS011;700;51.906;8.404;2023-01-10T22:05:42;2.30;;;1.57;;
1410;SDS011;700;51.906;8.404;2023-01-10T22:10:43;2.50;;;1.30;;
1410;SDS011;700;51.906;8.404;2023-01-10T22:15:46;5.00;;;1.27;;
1410;SDS011;700;51.906;8.404;2023-01-10T22:20:48;1.80;;;1.13;;
1410;SDS011;700;51.906;8.404;2023-01-10T22:25:58;2.60;;;1.50;;
1410;SDS011;700;51.906;8.404;2023-01-10T22:31:00;2.23;;;0.90;;
1410;SDS011;700;51.906;8.404;2023-01-10T22:36:21;1.60;;;1.20;;
1410;SDS011;700;51.906;8.404;2023-01-10T22:41:24;1.40;;;0.90;;
1410;SDS011;700;51.906;8.404;2023-01-10T22:46:28;4.70;;;1.20;;
1410;SDS011;700;51.906;8.404;2023-01-10T22:51:29;2.20;;;1.10;;
1410;SDS011;700;51.906;8.404;2023-01-10T22:56:34;2.50;;;0.80;;
1410;SDS011;700;51.906;8.404;2023-01-10T23:01:38;3.30;;;1.30;;
1410;SDS011;700;51.906;8.404;2023-01-10T23:06:39;1.17;;;0.80;;
1410;SDS011;700;51.906;8.404;2023-01-10T23:11:42;2.00;;;1.10;;
1410;SDS011;700;51.906;8.404;2023-01-10T23:16:45;1.30;;;0.80;;
1410;SDS011;700;51.906;8.404;2023-01-10T23:21:48;1.60;;;0.90;;
1410;SDS011;700;51.906;8.404;2023-01-10T23:26:50;1.57;;;1.00;;
1410;SDS011;700;51.906;8.404;2023-01-10T23:31:53;2.70;;;0.90;;
1410;SDS011;700;51.906;8.404;2023-01-10T23:36:56;2.00;;;1.10;;
1410;SDS011;700;51.906;8.404;2023-01-10T23:41:56;4.50;;;1.33;;
1410;SDS011;700;51.906;8.404;2023-01-10T23:46:57;3.13;;;1.20;;
1410;SDS011;700;51.906;8.404;2023-01-10T23:51:57;2.43;;;1.10;;
1410;SDS011;700;51.906;8.404;2023-01-10T23:56:58;1.83;;;0.90;;
